Time;durP1;ratioP1;P1;durP2;ratioP2;P2;SDS_P1;SDS_P2;PMS_P1;PMS_P2;Temp;Humidity;BMP_temperature;BMP_pressure;BME280_temperature;BME280_humidity;BME280_pressure;Samples;Min_cycle;Max_cycle;Signal;HPM_P1;HPM_P2
2022/12/06 00:01:28;;;;;;;37.55;23.85;;;;;;;0.89;100.00;99711.52;1681875;84;21565;-75
2022/12/06 00:03:58;;;;;;;36.70;23.47;;;;;;;0.88;100.00;99709.83;1682657;84;21322;-75
2022/12/06 00:06:28;;;;;;;34.00;22.02;;;;;;;0.88;100.00;99709.83;1662279;85;21580;-74
2022/12/06 00:08:57;;;;;;;40.65;24.32;;;;;;;0.86;100.00;99706.41;1665889;84;21029;-75
2022/12/06 00:11:28;;;;;;;36.70;22.70;;;;;;;0.92;100.00;99702.93;1657883;84;20992;-75
2022/12/06 00:13:59;;;;;;;35.60;22.35;;;;;;;0.92;100.00;99702.93;1660639;86;21047;-75
2022/12/06 00:16:26;;;;;;;33.40;22.45;;;;;;;0.97;100.00;99711.02;1668202;84;21017;-76
2022/12/06 00:18:53;;;;;;;36.42;21.82;;;;;;;0.96;100.00;99705.47;1655078;86;21040;-75
2022/12/06 00:21:24;;;;;;;34.03;22.05;;;;;;;1.00;100.00;99703.72;1657714;85;21567;-75
2022/12/06 00:23:56;;;;;;;36.83;21.57;;;;;;;0.93;100.00;99702.94;1657807;86;21099;-75
2022/12/06 00:26:23;;;;;;;31.37;21.35;;;;;;;0.96;100.00;99705.47;1704726;82;20987;-75
2022/12/06 00:28:53;;;;;;;31.93;20.17;;;;;;;0.97;100.00;99696.89;1712171;83;21055;-75
2022/12/06 00:31:22;;;;;;;34.27;21.77;;;;;;;1.01;100.00;99698.98;1710540;82;21038;-74
2022/12/06 00:33:49;;;;;;;33.40;20.50;;;;;;;1.02;100.00;99689.98;1714699;83;21002;-75
2022/12/06 00:36:22;;;;;;;32.35;20.08;;;;;;;1.02;100.00;99692.56;1710383;82;21065;-74
2022/12/06 00:38:50;;;;;;;29.48;20.35;;;;;;;1.04;100.00;99688.27;1705224;82;21033;-74
2022/12/06 00:41:18;;;;;;;;;;;;;;;1.07;100.00;99688.23;1711990;83;21077;-75
2022/12/06 00:43:46;;;;;;;29.30;19.65;;;;;;;1.09;100.00;99694.22;1711473;82;20156;-75
2022/12/06 00:46:17;;;;;;;29.45;18.98;;;;;;;1.12;100.00;99698.45;1709770;82;21148;-75
2022/12/06 00:48:44;;;;;;;26.90;19.05;;;;;;;1.15;100.00;99688.58;1677386;84;20992;-75
2022/12/06 00:51:11;;;;;;;;;;;;;;;1.15;100.00;99692.44;1672026;84;21598;-75
2022/12/06 00:53:38;;;;;;;28.25;18.62;;;;;;;1.18;100.00;99687.30;1667719;86;20448;-74
2022/12/06 00:56:05;;;;;;;26.05;18.50;;;;;;;1.15;100.00;99686.88;1660793;85;21049;-75
2022/12/06 00:58:32;;;;;;;29.00;19.07;;;;;;;1.16;100.00;99687.73;1664826;84;21003;-75
2022/12/06 01:01:19;;;;;;;29.70;18.63;;;;;;;1.13;100.00;99678.77;1679270;84;20996;-75
2022/12/06 01:03:50;;;;;;;29.37;18.17;;;;;;;1.17;100.00;99672.70;1680550;84;21019;-75
2022/12/06 01:06:16;;;;;;;25.65;17.80;;;;;;;1.22;100.00;99676.94;1656756;84;21028;-75
2022/12/06 01:08:43;;;;;;;30.30;17.95;;;;;;;1.29;100.00;99675.17;1680416;84;20939;-75
2022/12/06 01:11:13;;;;;;;27.13;17.53;;;;;;;1.33;100.00;99674.27;1663421;84;21124;-75
2022/12/06 01:13:41;;;;;;;27.45;18.20;;;;;;;1.38;100.00;99671.66;1655708;85;20974;-75
2022/12/06 01:16:15;;;;;;;25.05;16.67;;;;;;;1.36;100.00;99663.94;1710153;82;21568;-75
2022/12/06 01:18:44;;;;;;;27.22;18.55;;;;;;;1.32;100.00;99664.85;1711107;82;21687;-75
2022/12/06 01:21:16;;;;;;;27.13;16.97;;;;;;;1.32;100.00;99660.99;1709756;82;21049;-74
2022/12/06 01:23:44;;;;;;;26.97;17.77;;;;;;;1.33;100.00;99657.54;1673100;84;21499;-75
2022/12/06 01:26:24;;;;;;;28.75;18.48;;;;;;;1.37;100.00;99652.77;1663516;86;20951;-75
2022/12/06 01:28:52;;;;;;;26.25;17.45;;;;;;;1.40;100.00;99653.17;1674057;83;21089;-75
2022/12/06 01:31:19;;;;;;;30.05;17.90;;;;;;;1.46;100.00;99653.97;1662425;86;21109;-75
2022/12/06 01:33:46;;;;;;;25.40;17.57;;;;;;;1.43;100.00;99642.84;1706643;82;21020;-74
2022/12/06 01:36:21;;;;;;;23.30;16.52;;;;;;;1.38;100.00;99641.63;1707081;82;21009;-75
2022/12/06 01:38:53;;;;;;;31.73;18.48;;;;;;;1.42;100.00;99638.13;1671946;84;21025;-75
2022/12/06 01:41:23;;;;;;;25.43;17.25;;;;;;;1.48;100.00;99635.48;1661254;84;20998;-74
2022/12/06 01:43:51;;;;;;;30.02;17.45;;;;;;;1.49;100.00;99623.05;1683064;84;22186;-75
2022/12/06 01:46:34;;;;;;;28.27;17.35;;;;;;;1.48;100.00;99625.19;1681772;84;21485;-75
2022/12/06 01:49:20;;;;;;;29.92;18.00;;;;;;;1.51;100.00;99621.73;1680698;84;20977;-74
2022/12/06 01:51:52;;;;;;;31.68;17.80;;;;;;;1.51;100.00;99616.18;1684153;84;20955;-75
2022/12/06 01:54:21;;;;;;;26.97;17.45;;;;;;;1.48;100.00;99614.90;1680821;84;21014;-75
2022/12/06 01:56:50;;;;;;;30.20;17.87;;;;;;;1.51;100.00;99612.31;1660876;85;21079;-75
2022/12/06 01:59:17;;;;;;;28.05;17.73;;;;;;;1.44;100.00;99613.25;1663973;84;21055;-75
2022/12/06 02:01:46;;;;;;;27.35;18.05;;;;;;;1.45;100.00;99611.08;1672551;84;21102;-75
2022/12/06 02:04:13;;;;;;;33.00;19.40;;;;;;;1.45;100.00;99614.94;1671486;84;21083;-75
2022/12/06 02:06:41;;;;;;;33.20;20.35;;;;;;;1.49;100.00;99603.76;1667303;85;20995;-75
2022/12/06 02:09:09;;;;;;;34.27;18.95;;;;;;;1.56;100.00;99602.80;1688448;83;21016;-75
2022/12/06 02:11:37;;;;;;;32.05;17.77;;;;;;;1.56;100.00;99600.22;1664550;85;21046;-74
2022/12/06 02:14:06;;;;;;;;;;;;;;;1.60;100.00;99588.59;1691412;83;21309;-74
2022/12/06 02:16:44;;;;;;;29.65;17.23;;;;;;;1.54;100.00;99590.81;1685756;84;20103;-74
2022/12/06 02:19:34;;;;;;;29.75;16.48;;;;;;;1.51;100.00;99591.73;1661355;85;21612;-74
2022/12/06 02:22:18;;;;;;;30.50;17.98;;;;;;;1.53;100.00;99584.82;1651711;85;21076;-75
2022/12/06 02:25:23;;;;;;;32.10;18.27;;;;;;;1.56;100.00;99589.92;1656497;85;21673;-75
2022/12/06 02:28:17;;;;;;;28.85;17.37;;;;;;;1.61;100.00;99594.18;1692477;83;21586;-75
2022/12/06 02:31:03;;;;;;;34.90;18.62;;;;;;;1.59;100.00;99583.05;1718367;82;21545;-75
2022/12/06 02:33:47;;;;;;;30.60;18.23;;;;;;;1.55;100.00;99579.23;1717572;82;21093;-75
2022/12/06 02:36:39;;;;;;;34.10;18.75;;;;;;;1.60;100.00;99568.01;1703409;83;21065;-74
2022/12/06 02:39:17;;;;;;;34.38;18.80;;;;;;;1.64;100.00;99568.41;1707888;82;21720;-75
2022/12/06 02:41:49;;;;;;;36.08;19.50;;;;;;;1.64;100.00;99555.09;1712617;82;21572;-75
2022/12/06 02:44:24;;;;;;;33.53;18.90;;;;;;;1.64;100.00;99555.53;1718355;82;21110;-75
2022/12/06 02:46:52;;;;;;;37.17;20.15;;;;;;;1.63;100.00;99564.14;1710605;82;21066;-75
2022/12/06 02:49:20;;;;;;;32.20;18.62;;;;;;;1.65;100.00;99552.08;1712932;83;21081;-75
2022/12/06 02:51:50;;;;;;;38.42;20.80;;;;;;;1.67;100.00;99554.20;1714519;82;21074;-75
2022/12/06 02:54:17;;;;;;;35.80;19.02;;;;;;;1.64;100.00;99555.53;1718550;83;21089;-74
2022/12/06 02:56:44;;;;;;;36.08;19.23;;;;;;;1.68;100.00;99549.45;1709616;83;21528;-75
2022/12/06 02:59:10;;;;;;;37.80;20.60;;;;;;;1.68;100.00;99548.17;1715441;82;21013;-75
2022/12/06 03:01:42;;;;;;;34.35;18.80;;;;;;;1.68;100.00;99556.77;1712199;83;21085;-75
2022/12/06 03:04:55;;;;;;;32.08;18.17;;;;;;;1.69;100.00;99549.89;1710671;83;21025;-75
2022/12/06 03:07:32;;;;;;;34.45;19.02;;;;;;;1.65;100.00;99541.78;1705493;83;21042;-75
2022/12/06 03:10:25;;;;;;;40.03;22.15;;;;;;;1.70;100.00;99538.71;1709048;82;21026;-75
2022/12/06 03:13:27;;;;;;;38.02;21.17;;;;;;;1.72;100.00;99535.69;1672416;84;20999;-74
2022/12/06 03:16:07;;;;;;;36.77;20.45;;;;;;;1.82;100.00;99547.56;1623171;87;21098;-74
2022/12/06 03:19:02;;;;;;;35.70;20.50;;;;;;;1.86;100.00;99549.20;1610327;88;21049;-75
2022/12/06 03:21:59;;;;;;;33.35;19.82;;;;;;;1.87;100.00;99540.59;1609785;88;21097;-75
2022/12/06 03:24:28;;;;;;;38.48;20.12;;;;;;;1.88;100.00;99542.32;1625278;86;21141;-75
2022/12/06 03:26:58;;;;;;;36.38;20.65;;;;;;;1.82;100.00;99533.41;1670625;84;21054;-74
2022/12/06 03:29:28;;;;;;;39.75;19.77;;;;;;;1.81;100.00;99530.84;1669127;84;21006;-75
2022/12/06 03:31:58;;;;;;;42.33;21.30;;;;;;;1.78;100.00;99540.74;1669085;84;20982;-75
2022/12/06 03:34:30;;;;;;;39.05;20.30;;;;;;;1.81;100.00;99536.83;1668409;84;21018;-74
2022/12/06 03:36:59;;;;;;;30.75;18.57;;;;;;;1.79;100.00;99536.00;1668937;84;21041;-75
2022/12/06 03:39:39;;;;;;;39.25;20.92;;;;;;;1.81;100.00;99535.55;1668777;85;21017;-74
2022/12/06 03:42:08;;;;;;;35.92;20.82;;;;;;;1.79;100.00;99528.27;1666229;86;21064;-75
2022/12/06 03:44:36;;;;;;;41.13;19.35;;;;;;;1.88;100.00;99526.88;1670294;84;21111;-75
2022/12/06 03:47:22;;;;;;;38.95;20.97;;;;;;;1.87;100.00;99530.74;1668964;84;21009;-75
2022/12/06 03:49:57;;;;;;;36.85;19.55;;;;;;;1.87;100.00;99525.59;1684075;82;21025;-75
2022/12/06 03:52:24;;;;;;;36.90;20.17;;;;;;;1.88;100.00;99529.45;1703276;83;21052;-75
2022/12/06 03:54:51;;;;;;;38.33;20.20;;;;;;;1.93;100.00;99527.66;1697804;83;20998;-75
2022/12/06 03:57:17;;;;;;;37.73;20.25;;;;;;;1.97;100.00;99521.58;1705206;82;21062;-75
2022/12/06 03:59:45;;;;;;;41.17;20.83;;;;;;;1.93;100.00;99519.94;1702525;82;21034;-74
2022/12/06 04:02:11;;;;;;;33.80;19.00;;;;;;;1.92;100.00;99523.36;1713864;82;21057;-75
2022/12/06 04:04:39;;;;;;;40.03;21.50;;;;;;;1.93;100.00;99519.06;1692384;83;22276;-75
2022/12/06 04:07:06;;;;;;;36.42;19.73;;;;;;;1.93;100.00;99517.36;1700104;83;21599;-75
2022/12/06 04:15:05;;;;;;;37.53;20.32;;;;;;;1.88;100.00;99510.14;1714785;82;20999;-75
2022/12/06 04:20:16;;;;;;;38.38;20.50;;;;;;;1.90;100.00;99510.94;1707227;83;21046;-74
2022/12/06 04:25:27;;;;;;;35.38;19.67;;;;;;;1.92;100.00;99518.21;1707327;83;21086;-75
2022/12/06 04:38:53;;;;;;;37.93;19.50;;;;;;;1.94;100.00;99498.45;1705413;82;21026;-74
2022/12/06 04:44:06;;;;;;;38.98;20.85;;;;;;;1.94;100.00;99501.02;1705355;83;21100;-75
2022/12/06 04:46:33;;;;;;;40.28;18.80;;;;;;;1.89;100.00;99500.23;1671906;84;21555;-75
2022/12/06 04:48:59;;;;;;;36.23;19.67;;;;;;;1.94;100.00;99498.45;1702452;82;21517;-75
2022/12/06 04:51:26;;;;;;;38.90;20.88;;;;;;;1.91;100.00;99493.80;1700895;82;21513;-75
2022/12/06 04:53:53;;;;;;;39.30;20.23;;;;;;;1.93;100.00;99491.61;1713009;82;21588;-74
2022/12/06 04:56:19;;;;;;;40.15;20.27;;;;;;;1.99;100.00;99492.80;1712548;82;21025;-75
2022/12/06 04:58:46;;;;;;;40.35;22.20;;;;;;;2.03;100.00;99496.60;1719064;81;21002;-75
2022/12/06 05:01:13;;;;;;;37.08;19.82;;;;;;;2.08;100.00;99489.66;1741037;82;21042;-75
2022/12/06 05:03:39;;;;;;;36.93;20.75;;;;;;;2.12;100.00;99486.14;1724358;83;20951;-76
2022/12/06 05:06:07;;;;;;;40.67;21.75;;;;;;;2.05;100.00;99484.56;1722894;82;21050;-75
2022/12/06 05:08:33;;;;;;;39.00;19.48;;;;;;;2.00;100.00;99485.47;1724357;83;21620;-75
2022/12/06 05:11:00;;;;;;;35.08;21.60;;;;;;;1.97;100.00;99484.67;1729160;82;21113;-75
2022/12/06 05:13:26;;;;;;;36.93;20.00;;;;;;;1.93;100.00;99478.73;1723894;82;21105;-75
2022/12/06 05:15:58;;;;;;;32.85;18.90;;;;;;;1.96;100.00;99478.69;1728591;82;21024;-75
2022/12/06 05:18:26;;;;;;;36.95;20.35;;;;;;;1.96;100.00;99465.81;1716801;82;21593;-75
2022/12/06 05:21:09;;;;;;;34.03;19.90;;;;;;;1.91;100.00;99475.33;1686691;83;21528;-75
2022/12/06 05:23:36;;;;;;;35.38;19.95;;;;;;;1.88;100.00;99467.66;1674514;84;21052;-75
2022/12/06 05:26:13;;;;;;;33.65;19.10;;;;;;;1.93;100.00;99468.44;1667241;84;21058;-75
2022/12/06 05:28:40;;;;;;;36.03;19.70;;;;;;;1.95;100.00;99462.80;1666580;84;21040;-75
2022/12/06 05:31:07;;;;;;;32.15;18.10;;;;;;;1.98;100.00;99458.04;1695493;84;21216;-75
2022/12/06 05:33:36;;;;;;;32.75;18.87;;;;;;;1.94;100.00;99457.25;1690943;84;21093;-75
2022/12/06 05:36:21;;;;;;;36.55;20.20;;;;;;;1.87;100.00;99450.48;1670437;84;21002;-76
2022/12/06 05:38:49;;;;;;;32.93;19.42;;;;;;;1.84;100.00;99459.55;1699357;83;21637;-75
2022/12/06 05:41:16;;;;;;;37.40;20.70;;;;;;;1.83;100.00;99447.56;1650666;84;20996;-75
2022/12/06 05:43:43;;;;;;;37.33;21.65;;;;;;;1.90;100.00;99449.15;1675266;86;21000;-75
2022/12/06 05:46:11;;;;;;;37.30;20.02;;;;;;;1.95;100.00;99449.92;1669085;84;21034;-68
2022/12/06 05:48:39;;;;;;;36.58;19.65;;;;;;;1.96;100.00;99443.92;1679792;84;21030;-76
2022/12/06 05:51:06;;;;;;;35.48;20.20;;;;;;;1.93;100.00;99441.41;1677002;84;21005;-75
2022/12/06 05:53:32;;;;;;;33.02;20.20;;;;;;;1.97;100.00;99436.59;1643734;86;21385;-75
2022/12/06 05:56:07;;;;;;;36.75;19.85;;;;;;;1.97;100.00;99437.88;1674493;84;21568;-75
2022/12/06 05:58:34;;;;;;;35.23;20.23;;;;;;;1.87;100.00;99429.89;1687556;85;21064;-75
2022/12/06 06:01:01;;;;;;;35.30;21.40;;;;;;;1.84;100.00;99436.82;1674589;84;21034;-74
2022/12/06 06:03:28;;;;;;;33.73;20.17;;;;;;;1.85;100.00;99437.23;1672757;84;21085;-75
2022/12/06 06:05:58;;;;;;;36.75;20.85;;;;;;;1.86;100.00;99435.92;1674272;84;21501;-75
2022/12/06 06:08:27;;;;;;;37.98;21.33;;;;;;;1.87;100.00;99431.18;1670903;84;21090;-75
2022/12/06 06:10:55;;;;;;;39.00;21.95;;;;;;;1.88;100.00;99431.61;1656315;84;21017;-75
2022/12/06 06:13:22;;;;;;;39.45;21.73;;;;;;;1.90;100.00;99428.99;1711150;83;21049;-75
2022/12/06 06:15:49;;;;;;;33.35;19.48;;;;;;;1.95;100.00;99422.89;1724716;82;21149;-74
2022/12/06 06:18:18;;;;;;;35.58;20.92;;;;;;;1.91;100.00;99423.83;1711618;83;21101;-75
2022/12/06 06:20:50;;;;;;;37.00;21.77;;;;;;;1.91;100.00;99427.70;1718732;82;20950;-75
2022/12/06 06:23:19;;;;;;;38.38;21.25;;;;;;;1.88;100.00;99423.89;1717278;82;21002;-75
2022/12/06 06:25:46;;;;;;;38.30;21.07;;;;;;;1.91;100.00;99426.41;1711237;83;20947;-75
2022/12/06 06:28:13;;;;;;;38.70;20.65;;;;;;;1.94;100.00;99430.66;1722515;82;21045;-75
2022/12/06 06:30:40;;;;;;;35.88;20.30;;;;;;;1.89;100.00;99430.72;1719016;82;21006;-75
2022/12/06 06:33:07;;;;;;;38.23;21.97;;;;;;;1.87;100.00;99427.31;1718503;82;21007;-75
2022/12/06 06:35:34;;;;;;;34.20;20.60;;;;;;;1.85;100.00;99427.80;1736557;82;21018;-75
2022/12/06 06:38:01;;;;;;;40.08;21.12;;;;;;;1.93;100.00;99432.39;1720850;82;20982;-75
2022/12/06 06:40:28;;;;;;;40.80;21.97;;;;;;;1.93;100.00;99428.52;1727557;82;21058;-75
2022/12/06 06:42:56;;;;;;;36.23;21.05;;;;;;;1.95;100.00;99430.61;1725365;82;21572;-75
2022/12/06 06:45:24;;;;;;;40.50;22.58;;;;;;;1.94;100.00;99436.66;1744183;82;21006;-76
2022/12/06 06:47:51;;;;;;;37.13;20.88;;;;;;;1.89;100.00;99430.72;1727564;81;21038;-75
2022/12/06 06:50:17;;;;;;;40.50;22.48;;;;;;;1.85;100.00;99427.80;1717984;83;21121;-75
2022/12/06 06:52:44;;;;;;;36.25;20.77;;;;;;;1.81;100.00;99427.42;1733217;82;21085;-75
2022/12/06 06:55:10;;;;;;;35.45;21.07;;;;;;;1.78;100.00;99430.89;1718110;82;21101;-75
2022/12/06 06:57:39;;;;;;;34.27;20.52;;;;;;;1.79;100.00;99430.45;1736358;82;21152;-74
2022/12/06 07:00:07;;;;;;;37.15;20.48;;;;;;;1.83;100.00;99428.25;1716644;83;21129;-75
2022/12/06 07:02:34;;;;;;;33.95;20.55;;;;;;;1.86;100.00;99433.35;1709924;83;21012;-75
2022/12/06 07:05:00;;;;;;;32.53;20.23;;;;;;;1.86;100.00;99428.20;1711594;83;21041;-75
2022/12/06 07:07:27;;;;;;;34.18;18.87;;;;;;;1.89;100.00;99430.72;1674841;86;21024;-75
2022/12/06 07:09:54;;;;;;;36.00;21.45;;;;;;;1.92;100.00;99436.27;1666351;86;21114;-75
2022/12/06 07:12:20;;;;;;;34.80;19.92;;;;;;;1.91;100.00;99432.84;1666103;86;21021;-75
2022/12/06 07:14:47;;;;;;;33.20;19.37;;;;;;;1.90;100.00;99433.70;1673943;84;20994;-75
2022/12/06 07:17:13;;;;;;;31.77;20.08;;;;;;;1.89;100.00;99430.72;1671705;86;21572;-75
2022/12/06 07:19:40;;;;;;;33.65;19.87;;;;;;;1.90;100.00;99436.27;1670960;85;21518;-75
2022/12/06 07:22:06;;;;;;;28.30;18.45;;;;;;;1.85;100.00;99435.52;1671731;85;20998;-75
2022/12/06 07:24:33;;;;;;;30.82;19.40;;;;;;;1.87;100.00;99435.04;1658546;86;20975;-75
2022/12/06 07:26:59;;;;;;;26.23;18.00;;;;;;;1.95;100.00;99437.50;1672026;85;20993;-75
2022/12/06 07:29:26;;;;;;;35.08;20.60;;;;;;;1.96;100.00;99434.03;1649795;85;21062;-75
2022/12/06 07:31:53;;;;;;;29.45;18.85;;;;;;;1.97;100.00;99435.31;1683247;83;21559;-75
2022/12/06 07:34:20;;;;;;;32.78;20.45;;;;;;;1.98;100.00;99435.71;1717675;83;21023;-74
2022/12/06 07:36:46;;;;;;;31.05;19.65;;;;;;;1.94;100.00;99435.36;1687165;83;21494;-75
2022/12/06 07:39:13;;;;;;;31.75;20.95;;;;;;;1.95;100.00;99428.04;1718017;83;21132;-75
2022/12/06 07:47:09;;;;;;;29.80;19.30;;;;;;;1.99;100.00;99420.69;1716552;83;21051;-75
2022/12/06 07:49:36;;;;;;;26.87;18.57;;;;;;;2.05;100.00;99420.18;1717721;83;21624;-75
2022/12/06 07:52:02;;;;;;;27.50;18.17;;;;;;;2.07;100.00;99423.55;1678151;84;20980;-75
2022/12/06 07:54:29;;;;;;;24.98;17.02;;;;;;;2.17;100.00;99426.39;1666854;86;21506;-75
2022/12/06 07:56:56;;;;;;;29.80;18.43;;;;;;;2.21;100.00;99421.58;1668044;86;21102;-76
2022/12/06 07:59:23;;;;;;;29.67;19.55;;;;;;;2.17;100.00;99409.64;1670271;85;21003;-75
2022/12/06 08:01:52;;;;;;;25.90;17.48;;;;;;;2.35;100.00;99429.94;1671517;84;21653;-75
2022/12/06 08:04:19;;;;;;;28.47;18.27;;;;;;;2.42;100.00;99422.48;1671046;84;21061;-76
2022/12/06 08:06:46;;;;;;;27.13;18.55;;;;;;;2.46;100.00;99426.72;1673151;84;21594;-76
2022/12/06 08:09:14;;;;;;;30.67;19.53;;;;;;;2.45;100.00;99422.42;1670767;84;21029;-76
2022/12/06 08:11:41;;;;;;;34.40;20.12;;;;;;;2.50;100.00;99425.36;1692649;83;21055;-75
2022/12/06 08:14:08;;;;;;;31.00;19.05;;;;;;;2.53;100.00;99420.99;1690766;83;21021;-75
2022/12/06 08:16:34;;;;;;;30.05;19.70;;;;;;;2.51;100.00;99421.90;1650442;86;21053;-76
2022/12/06 08:19:01;;;;;;;30.12;19.30;;;;;;;2.50;100.00;99415.05;1690910;83;21057;-75
2022/12/06 08:21:28;;;;;;;30.90;19.70;;;;;;;2.53;100.00;99420.99;1662803;85;21038;-76
2022/12/06 08:23:55;;;;;;;30.40;20.27;;;;;;;2.60;100.00;99421.71;1652069;84;21531;-75
2022/12/06 08:26:21;;;;;;;30.52;20.00;;;;;;;2.60;100.00;99419.13;1663299;84;21520;-75
2022/12/06 08:28:48;;;;;;;33.85;20.55;;;;;;;2.71;100.00;99415.91;1671181;84;22246;-75
2022/12/06 08:31:21;;;;;;;33.15;20.85;;;;;;;2.68;100.00;99414.67;1685007;83;21559;-75
2022/12/06 08:33:48;;;;;;;33.83;21.40;;;;;;;2.71;100.00;99417.19;1676812;83;21032;-75
2022/12/06 08:36:20;;;;;;;47.05;28.17;;;;;;;2.78;100.00;99408.47;1680154;84;20942;-75
2022/12/06 08:38:47;;;;;;;47.90;28.83;;;;;;;2.89;100.00;99409.09;1686185;83;20982;-75
2022/12/06 08:44:02;;;;;;;43.42;27.70;;;;;;;3.00;99.98;99408.02;1661315;85;21555;-76
2022/12/06 08:46:31;;;;;;;49.40;29.67;;;;;;;3.09;100.00;99406.53;1684775;84;21009;-76
2022/12/06 08:48:58;;;;;;;36.13;26.15;;;;;;;3.22;100.00;99411.83;1660582;85;20975;-76
2022/12/06 08:51:25;;;;;;;40.98;24.65;;;;;;;3.25;100.00;99414.34;1654285;85;20970;-76
2022/12/06 08:53:54;;;;;;;37.67;25.97;;;;;;;3.15;99.99;99412.84;1667828;86;21566;-75
2022/12/06 08:56:22;;;;;;;39.13;24.92;;;;;;;3.12;99.93;99410.33;1661741;86;20994;-76
2022/12/06 08:58:49;;;;;;;33.70;22.37;;;;;;;3.14;100.00;99409.41;1666401;84;21039;-76
2022/12/06 09:01:20;;;;;;;32.40;21.05;;;;;;;3.19;100.00;99413.16;1666121;84;21037;-75
2022/12/06 09:03:47;;;;;;;33.53;22.30;;;;;;;3.33;100.00;99412.44;1698319;83;21079;-76
2022/12/06 09:06:14;;;;;;;32.53;22.53;;;;;;;3.54;100.00;99410.23;1680437;83;21072;-76
2022/12/06 09:08:41;;;;;;;33.83;22.17;;;;;;;3.63;100.00;99407.42;1677636;85;20969;-76
2022/12/06 09:11:08;;;;;;;33.13;20.55;;;;;;;3.67;100.00;99405.19;1660786;85;21025;-76
2022/12/06 09:13:36;;;;;;;32.98;20.48;;;;;;;3.64;100.00;99405.69;1691087;85;20957;-76
2022/12/06 09:16:14;;;;;;;33.45;21.37;;;;;;;3.62;100.00;99405.73;1693136;83;22200;-76
2022/12/06 09:18:42;;;;;;;30.82;19.37;;;;;;;3.62;100.00;99405.73;1658657;85;20955;-75
2022/12/06 09:21:16;;;;;;;28.15;19.57;;;;;;;3.57;99.77;99404.55;1670053;85;21028;-76
2022/12/06 09:23:43;;;;;;;31.75;21.57;;;;;;;3.49;99.53;99400.45;1663467;84;21027;-76
2022/12/06 09:26:09;;;;;;;35.00;21.80;;;;;;;3.41;99.71;99399.34;1659089;85;21048;-76
2022/12/06 09:28:40;;;;;;;34.08;22.17;;;;;;;3.53;100.00;99394.35;1665570;84;20951;-76
2022/12/06 09:31:08;;;;;;;33.45;22.27;;;;;;;3.54;100.00;99396.88;1681444;84;21023;-76
2022/12/06 09:33:36;;;;;;;38.40;22.00;;;;;;;3.52;99.55;99393.92;1665003;84;21568;-76
2022/12/06 09:36:21;;;;;;;40.17;21.42;;;;;;;3.45;99.61;99390.66;1681865;84;21011;-76
2022/12/06 09:38:53;;;;;;;37.78;22.52;;;;;;;3.52;99.88;99383.60;1666469;85;21044;-76
2022/12/06 09:41:25;;;;;;;30.90;21.40;;;;;;;3.57;100.00;99383.05;1682961;84;20964;-76
2022/12/06 09:44:42;;;;;;;31.40;21.62;;;;;;;3.56;99.70;99375.76;1672359;84;21105;-76
2022/12/06 09:47:20;;;;;;;38.08;23.77;;;;;;;3.51;99.45;99380.62;1668816;84;21077;-76
2022/12/06 09:50:13;;;;;;;34.23;21.68;;;;;;;3.58;100.00;99371.83;1683028;84;21010;-77
2022/12/06 09:53:03;;;;;;;35.28;21.80;;;;;;;3.67;100.00;99366.88;1666762;84;21042;-76
2022/12/06 09:55:46;;;;;;;33.13;21.73;;;;;;;3.82;100.00;99367.80;1691816;84;21066;-76
2022/12/06 09:58:31;;;;;;;38.33;23.20;;;;;;;3.85;100.00;99368.17;1679745;83;21064;-76
2022/12/06 10:01:21;;;;;;;33.88;20.68;;;;;;;3.98;100.00;99359.23;1646380;86;21050;-77
2022/12/06 10:04:26;;;;;;;37.98;23.65;;;;;;;4.01;100.00;99359.98;1626379;87;21505;-76
2022/12/06 10:06:58;;;;;;;42.20;25.05;;;;;;;3.91;99.83;99349.92;1644308;86;21529;-77
2022/12/06 10:09:56;;;;;;;45.08;28.17;;;;;;;4.02;100.00;99345.33;1648170;86;21084;-76
2022/12/06 10:12:43;;;;;;;44.35;28.17;;;;;;;4.06;99.77;99349.51;1622794;87;21590;-76
2022/12/06 10:15:24;;;;;;;38.50;25.15;;;;;;;4.09;99.58;99352.04;1642972;86;21024;-75
2022/12/06 10:18:19;;;;;;;38.85;24.92;;;;;;;4.12;99.53;99348.08;1642816;86;21169;-75
2022/12/06 10:21:23;;;;;;;45.35;27.17;;;;;;;4.04;98.92;99343.56;1639385;86;21307;-76
2022/12/06 10:24:07;;;;;;;36.98;22.65;;;;;;;3.99;99.15;99336.37;1641194;86;21143;-76
2022/12/06 10:26:51;;;;;;;36.95;23.57;;;;;;;4.02;99.01;99333.70;1647087;86;21036;-75
2022/12/06 10:29:28;;;;;;;33.92;22.00;;;;;;;3.97;98.90;99335.55;1688910;83;20986;-76
2022/12/06 10:32:18;;;;;;;34.95;22.27;;;;;;;3.98;98.91;99333.39;1683193;83;21008;-75
2022/12/06 10:34:54;;;;;;;44.13;24.80;;;;;;;3.98;99.13;99323.91;1689560;83;21060;-75
2022/12/06 10:37:52;;;;;;;39.35;25.70;;;;;;;4.02;99.02;99322.08;1699534;83;21456;-75
2022/12/06 10:40:36;;;;;;;45.75;27.52;;;;;;;3.95;98.60;99315.36;1683917;83;21020;-76
2022/12/06 10:43:25;;;;;;;42.93;26.48;;;;;;;3.86;98.82;99310.45;1673954;84;21060;-75
2022/12/06 10:49:28;;;;;;;39.13;23.98;;;;;;;4.20;99.54;99299.63;1678418;84;21296;-76
2022/12/06 10:52:12;;;;;;;38.00;25.45;;;;;;;4.22;98.98;99296.98;1658232;85;21020;-75
2022/12/06 10:54:59;;;;;;;41.25;24.90;;;;;;;4.26;99.10;99292.98;1662079;85;21025;-75
2022/12/06 10:57:47;;;;;;;;;;;;;;;4.16;98.53;99296.70;1609032;88;21037;-75
2022/12/06 11:00:20;;;;;;;40.17;25.48;;;;;;;4.16;98.77;99299.29;1622455;86;20155;-75
2022/12/06 11:03:09;;;;;;;37.30;23.20;;;;;;;4.07;98.37;99299.55;1634926;86;21098;-75
2022/12/06 11:06:15;;;;;;;41.75;25.60;;;;;;;4.06;98.67;99299.13;1633086;86;22345;-76
2022/12/06 11:08:55;;;;;;;42.73;26.95;;;;;;;4.07;98.68;99294.38;1640890;86;21077;-76
2022/12/06 11:11:29;;;;;;;41.80;26.75;;;;;;;3.95;98.15;99288.24;1631194;86;21053;-74
2022/12/06 11:14:07;;;;;;;38.78;24.05;;;;;;;3.98;98.78;99284.31;1636492;86;21041;-75
2022/12/06 11:16:44;;;;;;;35.15;22.98;;;;;;;3.96;98.61;99296.41;1651982;86;21141;-75
2022/12/06 11:19:37;;;;;;;38.33;23.77;;;;;;;4.04;99.04;99289.30;1650081;86;20967;-76
2022/12/06 11:22:45;;;;;;;42.45;23.80;;;;;;;4.03;98.80;99290.17;1645736;86;21037;-76
2022/12/06 11:25:48;;;;;;;39.58;25.27;;;;;;;4.05;98.80;99288.41;1643555;86;20997;-75
2022/12/06 11:28:26;;;;;;;41.75;24.45;;;;;;;4.06;98.33;99288.80;1655464;86;20993;-75
2022/12/06 11:30:55;;;;;;;41.53;23.90;;;;;;;4.00;98.35;99282.51;1655766;84;21052;-75
2022/12/06 11:33:32;;;;;;;38.90;24.95;;;;;;;4.00;98.64;99285.94;1695409;82;21045;-75
2022/12/06 11:36:03;;;;;;;41.83;26.23;;;;;;;3.97;98.31;99280.86;1715092;82;21087;-75
2022/12/06 11:38:32;;;;;;;37.73;23.45;;;;;;;3.92;98.50;99276.70;1719165;82;21086;-75
2022/12/06 11:41:00;;;;;;;42.10;24.75;;;;;;;3.88;98.12;99266.91;1725110;82;21065;-75
2022/12/06 11:43:34;;;;;;;40.28;24.63;;;;;;;3.92;98.54;99271.54;1724132;82;21149;-75
2022/12/06 11:46:04;;;;;;;37.08;23.05;;;;;;;4.00;98.82;99271.73;1724439;82;21058;-75
2022/12/06 11:48:34;;;;;;;40.15;24.72;;;;;;;4.09;98.85;99274.53;1723495;83;21002;-75
2022/12/06 11:51:01;;;;;;;41.23;25.10;;;;;;;4.06;98.43;99277.17;1724472;82;21512;-76
2022/12/06 11:53:40;;;;;;;37.45;22.58;;;;;;;4.10;98.69;99273.62;1717795;82;21076;-75
2022/12/06 11:56:27;;;;;;;39.03;23.70;;;;;;;4.06;98.14;99274.58;1712237;83;21148;-75
2022/12/06 11:59:28;;;;;;;41.73;23.80;;;;;;;3.91;97.77;99268.11;1716158;83;20970;-76
2022/12/06 12:02:02;;;;;;;45.20;24.98;;;;;;;3.79;97.63;99271.05;1711620;82;20953;-76
2022/12/06 12:04:39;;;;;;;45.10;26.85;;;;;;;3.77;98.12;99272.36;1717034;82;20997;-76
2022/12/06 12:07:19;;;;;;;43.87;25.57;;;;;;;3.81;98.61;99262.37;1702307;82;21000;-76
2022/12/06 12:09:59;;;;;;;47.83;25.50;;;;;;;3.85;98.49;99265.70;1713828;83;21067;-77
2022/12/06 12:15:32;;;;;;;47.73;27.65;;;;;;;3.78;98.38;99254.70;1723641;82;21053;-76
2022/12/06 12:18:01;;;;;;;44.27;26.20;;;;;;;3.88;97.80;99257.03;1710592;82;21046;-76
2022/12/06 12:20:36;;;;;;;42.25;26.55;;;;;;;3.81;97.59;99248.16;1714896;83;21580;-77
2022/12/06 12:23:18;;;;;;;41.08;26.60;;;;;;;3.78;97.70;99252.13;1722434;82;21141;-77
2022/12/06 12:26:15;;;;;;;47.27;27.00;;;;;;;3.72;97.45;99251.42;1723187;83;20982;-76